createdAt,value
2023-06-30T00:00:04.633Z,17.15
2023-06-30T00:01:04.637Z,17.14
2023-06-30T00:02:04.620Z,17.23
2023-06-30T00:03:04.729Z,17.30
2023-06-30T00:04:04.692Z,17.28
2023-06-30T00:05:04.691Z,17.29
2023-06-30T00:06:04.581Z,17.33
2023-06-30T00:07:04.567Z,17.32
2023-06-30T00:08:04.574Z,17.35
2023-06-30T00:09:04.541Z,17.32
2023-06-30T00:10:04.560Z,17.28
2023-06-30T00:11:04.532Z,17.20
2023-06-30T00:12:04.485Z,17.15
2023-06-30T00:13:04.473Z,17.00
2023-06-30T00:14:04.498Z,17.03
2023-06-30T00:15:04.484Z,17.08
2023-06-30T00:16:04.474Z,17.07
2023-06-30T00:17:04.455Z,17.13
2023-06-30T00:18:04.470Z,17.11
2023-06-30T00:19:04.410Z,17.06
2023-06-30T00:20:04.425Z,16.96
2023-06-30T00:21:04.410Z,16.95
2023-06-30T00:22:04.392Z,17.03
2023-06-30T00:23:04.401Z,17.08
2023-06-30T00:24:04.360Z,17.04
2023-06-30T00:25:04.370Z,17.07
2023-06-30T00:26:04.362Z,17.07
2023-06-30T00:27:04.336Z,17.10
2023-06-30T00:28:04.330Z,17.07
2023-06-30T00:29:04.319Z,17.13
2023-06-30T00:30:04.323Z,17.14
2023-06-30T00:31:04.333Z,17.13
2023-06-30T00:32:04.290Z,17.22
2023-06-30T00:33:04.361Z,17.23
2023-06-30T00:34:04.282Z,17.26
2023-06-30T00:35:04.242Z,17.25
2023-06-30T00:36:04.270Z,17.22
2023-06-30T00:37:04.279Z,17.22
2023-06-30T00:38:04.271Z,17.18
2023-06-30T00:39:04.221Z,17.15
2023-06-30T00:40:04.209Z,17.14
2023-06-30T00:41:04.237Z,17.14
2023-06-30T01:03:41.814Z,16.73
2023-06-30T01:04:47.219Z,16.74
2023-06-30T01:05:49.167Z,16.80
2023-06-30T01:06:40.125Z,16.95
2023-06-30T01:07:40.289Z,17.00
2023-06-30T01:08:40.142Z,17.03
2023-06-30T01:09:41.092Z,17.00
2023-06-30T01:10:40.035Z,17.00
2023-06-30T01:11:40.094Z,16.96
2023-06-30T01:12:40.111Z,16.98
2023-06-30T01:13:41.909Z,17.03
2023-06-30T01:14:40.066Z,17.07
2023-06-30T01:15:40.604Z,17.14
2023-06-30T01:16:50.563Z,17.25
2023-06-30T01:17:40.060Z,17.18
2023-06-30T01:18:41.194Z,17.20
2023-06-30T01:19:40.056Z,17.20
2023-06-30T01:20:41.959Z,17.20
2023-06-30T01:21:40.023Z,17.22
2023-06-30T01:22:40.202Z,17.29
2023-06-30T01:23:39.999Z,17.29
2023-06-30T01:24:41.488Z,17.29
2023-06-30T01:25:39.990Z,17.22
2023-06-30T01:26:40.026Z,17.15
2023-06-30T01:27:39.920Z,17.10
2023-06-30T01:29:40.679Z,17.04
2023-06-30T01:29:46.142Z,16.98
2023-06-30T01:31:01.765Z,16.88
2023-06-30T01:31:48.123Z,16.81
